createdAt,value
2022-12-29T00:00:52.440Z,101171.28
2022-12-29T00:03:55.272Z,101185.66
2022-12-29T00:06:57.618Z,101176.16
2022-12-29T00:10:00.300Z,101188.09
2022-12-29T00:13:21.554Z,101192.47
2022-12-29T00:16:24.166Z,101193.88
2022-12-29T00:19:45.365Z,101180.78
2022-12-29T00:23:06.871Z,101174.69
2022-12-29T00:26:32.725Z,101174.59
2022-12-29T00:29:54.553Z,101182.94
2022-12-29T00:33:15.648Z,101180.34
2022-12-29T00:36:24.562Z,101167.47
2022-12-29T00:39:45.544Z,101180.16
2022-12-29T00:43:06.908Z,101177.91
2022-12-29T00:46:14.212Z,101176.84
2022-12-29T00:49:32.714Z,101174.94
2022-12-29T00:52:35.136Z,101178.31
2022-12-29T00:55:38.634Z,101179.91
2022-12-29T00:58:40.987Z,101178.16
2022-12-29T01:01:44.957Z,101180.66
2022-12-29T01:04:47.510Z,101176.25
2022-12-29T01:07:51.770Z,101177.91
2022-12-29T01:11:01.176Z,101178.09
2022-12-29T01:14:03.869Z,101171.22
2022-12-29T01:17:06.825Z,101172.75
2022-12-29T01:20:12.829Z,101176.06
2022-12-29T01:23:15.633Z,101172.69
2022-12-29T01:26:18.736Z,101175.44
2022-12-29T01:29:21.384Z,101178.91
2022-12-29T01:32:24.187Z,101176.25
2022-12-29T01:35:26.517Z,101168.69
2022-12-29T01:38:29.224Z,101168.69
2022-12-29T01:41:32.442Z,101165.50
2022-12-29T01:44:47.353Z,101171.16
2022-12-29T01:47:52.746Z,101180.56
2022-12-29T01:50:55.404Z,101164.28
2022-12-29T01:53:59.521Z,101162.37
2022-12-29T01:57:04.252Z,101163.91
2022-12-29T02:00:11.335Z,101159.00
2022-12-29T02:03:15.503Z,101157.34
2022-12-29T02:06:20.382Z,101159.72
2022-12-29T02:09:24.264Z,101151.75
2022-12-29T02:12:27.007Z,101144.63
2022-12-29T02:15:50.128Z,101141.16
2022-12-29T02:19:12.518Z,101137.59
2022-12-29T02:22:30.039Z,101142.63
2022-12-29T02:25:35.402Z,101140.41
2022-12-29T02:28:51.153Z,101147.03
2022-12-29T02:32:02.486Z,101143.84
2022-12-29T02:35:11.379Z,101128.66
2022-12-29T02:38:16.185Z,101132.97
2022-12-29T02:41:37.426Z,101127.66
2022-12-29T02:44:39.838Z,101121.87
2022-12-29T02:47:49.996Z,101126.13
2022-12-29T02:51:04.737Z,101126.97
2022-12-29T02:54:26.008Z,101122.59
2022-12-29T02:57:35.599Z,101124.28
2022-12-29T03:00:40.594Z,101121.47
2022-12-29T03:03:49.452Z,101119.56
2022-12-29T03:07:10.571Z,101125.41
2022-12-29T03:10:20.996Z,101120.28
2022-12-29T03:14:01.177Z,101112.56
2022-12-29T03:17:10.224Z,101108.06
2022-12-29T03:20:15.983Z,101119.31
2022-12-29T03:23:19.943Z,101115.09
2022-12-29T03:26:23.110Z,101115.13
2022-12-29T03:29:28.837Z,101103.88
2022-12-29T03:32:41.517Z,101109.66
2022-12-29T03:35:45.365Z,101095.88
2022-12-29T03:39:07.756Z,101090.91
2022-12-29T03:42:14.556Z,101090.00
2022-12-29T03:45:18.439Z,101090.47
2022-12-29T03:48:20.745Z,101096.34
2022-12-29T03:51:23.794Z,101092.28
2022-12-29T03:54:26.274Z,101085.38
2022-12-29T03:57:29.014Z,101092.97
2022-12-29T04:00:32.015Z,101085.28
2022-12-29T04:03:35.059Z,101094.75
2022-12-29T04:06:37.565Z,101098.94
2022-12-29T04:09:40.583Z,101103.88
2022-12-29T04:12:46.821Z,101102.13
2022-12-29T04:15:49.892Z,101097.78
2022-12-29T04:18:53.929Z,101090.13
2022-12-29T04:21:56.722Z,101099.59
2022-12-29T04:24:59.441Z,101093.91
2022-12-29T04:28:02.316Z,101089.94
2022-12-29T04:31:05.167Z,101099.97
2022-12-29T04:34:08.673Z,101095.56
2022-12-29T04:37:11.252Z,101097.09
2022-12-29T04:40:14.132Z,101097.78
2022-12-29T04:43:18.243Z,101092.66
2022-12-29T04:46:23.458Z,101096.09
2022-12-29T04:49:26.557Z,101100.50
2022-12-29T04:52:29.362Z,101085.19
2022-12-29T04:55:31.954Z,101088.84
2022-12-29T04:58:34.686Z,101092.47
2022-12-29T05:01:37.305Z,101090.97
2022-12-29T05:04:40.468Z,101102.97
2022-12-29T05:07:43.250Z,101104.69
2022-12-29T05:10:46.555Z,101107.47
2022-12-29T05:13:49.204Z,101101.50
2022-12-29T05:16:52.235Z,101101.59
2022-12-29T05:19:55.184Z,101094.81
2022-12-29T05:22:58.108Z,101094.19
2022-12-29T05:26:00.619Z,101096.06
2022-12-29T05:29:03.716Z,101100.19
2022-12-29T05:32:08.354Z,101095.09
2022-12-29T05:35:11.193Z,101094.16
2022-12-29T05:38:13.955Z,101095.81
2022-12-29T05:41:17.929Z,101100.59
2022-12-29T05:44:22.209Z,101091.94
2022-12-29T05:47:29.590Z,101082.66
2022-12-29T05:50:32.569Z,101080.09
2022-12-29T05:53:36.709Z,101084.16
2022-12-29T05:56:39.117Z,101085.72
2022-12-29T05:59:41.901Z,101081.28
2022-12-29T06:02:44.703Z,101080.66
2022-12-29T06:05:47.771Z,101076.22
2022-12-29T06:08:50.703Z,101073.75
2022-12-29T06:11:56.640Z,101077.09
2022-12-29T06:14:59.023Z,101077.47
2022-12-29T06:18:02.392Z,101080.66
2022-12-29T06:21:05.553Z,101078.88
2022-12-29T06:24:08.192Z,101077.06
2022-12-29T06:27:10.903Z,101077.16
2022-12-29T06:30:14.088Z,101074.00
2022-12-29T06:33:16.863Z,101074.69
2022-12-29T06:36:20.387Z,101087.44
2022-12-29T06:39:22.992Z,101085.63
2022-12-29T06:42:26.202Z,101084.81
2022-12-29T06:45:30.074Z,101084.22
2022-12-29T06:48:32.759Z,101079.19
2022-12-29T06:51:35.134Z,101090.31
2022-12-29T06:54:37.791Z,101087.94
2022-12-29T06:57:40.375Z,101089.62
2022-12-29T07:00:43.195Z,101099.97
2022-12-29T07:03:45.635Z,101098.37
2022-12-29T07:06:48.285Z,101092.72
2022-12-29T07:09:50.689Z,101098.13
2022-12-29T07:12:53.309Z,101102.97
2022-12-29T07:15:55.690Z,101100.06
2022-12-29T07:19:00.004Z,101104.56
2022-12-29T07:22:03.057Z,101096.31
2022-12-29T07:25:05.868Z,101110.09
2022-12-29T07:28:08.323Z,101098.41
2022-12-29T07:31:21.528Z,101097.84
2022-12-29T07:34:23.989Z,101101.03
2022-12-29T07:37:26.771Z,101103.16
2022-12-29T07:40:29.067Z,101100.66
2022-12-29T07:43:31.665Z,101106.94
2022-12-29T07:46:54.580Z,101108.78
2022-12-29T07:49:57.170Z,101108.06
2022-12-29T07:52:59.598Z,101113.97
2022-12-29T07:56:02.429Z,101120.03
2022-12-29T07:59:05.172Z,101123.03
2022-12-29T08:02:10.595Z,101118.00
2022-12-29T08:05:20.540Z,101126.81
2022-12-29T08:08:22.817Z,101117.91
2022-12-29T08:11:32.459Z,101113.16
2022-12-29T08:14:43.023Z,101111.25
2022-12-29T08:17:52.450Z,101112.53
2022-12-29T08:20:58.144Z,101107.34
2022-12-29T08:24:06.893Z,101113.34
2022-12-29T08:27:21.063Z,101107.16
2022-12-29T08:30:24.463Z,101100.50
2022-12-29T08:33:27.281Z,101100.47
2022-12-29T08:36:31.144Z,101093.66
2022-12-29T08:39:33.925Z,101097.78
2022-12-29T08:42:36.567Z,101101.03
2022-12-29T08:45:38.908Z,101096.56
2022-12-29T08:48:41.702Z,101090.56
2022-12-29T08:51:44.020Z,101091.34
2022-12-29T08:54:46.621Z,101087.06
2022-12-29T08:57:48.962Z,101085.56
2022-12-29T09:00:53.317Z,101097.72
2022-12-29T09:07:20.533Z,101075.06
2022-12-29T09:10:23.012Z,101094.34
2022-12-29T09:13:25.724Z,101093.34
2022-12-29T09:16:33.051Z,101077.66
2022-12-29T09:19:35.920Z,101080.47
2022-12-29T09:22:47.477Z,101073.78
2022-12-29T09:25:52.507Z,101066.91
2022-12-29T09:28:57.839Z,101064.44
2022-12-29T09:32:12.670Z,101059.09
2022-12-29T09:35:26.678Z,101059.78
2022-12-29T09:38:29.676Z,101048.50
2022-12-29T09:41:37.303Z,101037.28
2022-12-29T09:44:42.852Z,101041.50
2022-12-29T09:47:46.075Z,101037.31
2022-12-29T09:50:52.783Z,101041.63
2022-12-29T09:53:59.648Z,101044.34
2022-12-29T09:57:02.329Z,101049.00
2022-12-29T10:00:08.005Z,101042.94
2022-12-29T10:03:20.230Z,101036.38
2022-12-29T10:06:56.559Z,101026.91
2022-12-29T10:10:23.048Z,101022.38
2022-12-29T10:14:04.831Z,101016.22
2022-12-29T10:17:07.378Z,101012.03
2022-12-29T10:20:28.503Z,101011.31
2022-12-29T10:23:35.735Z,101013.25
2022-12-29T10:26:43.031Z,101015.81
2022-12-29T10:29:56.487Z,101015.09
2022-12-29T10:33:02.176Z,101017.91
2022-12-29T10:36:16.449Z,101006.03
2022-12-29T10:39:32.111Z,101001.84
2022-12-29T10:42:42.182Z,101003.59
2022-12-29T10:45:45.276Z,100990.75
2022-12-29T10:48:48.549Z,100994.38
2022-12-29T10:51:53.077Z,100993.56
2022-12-29T10:55:01.302Z,100986.63
2022-12-29T10:58:06.384Z,100984.12
2022-12-29T11:01:11.927Z,100980.88
2022-12-29T11:04:33.313Z,100977.53
2022-12-29T11:07:35.593Z,100964.69
2022-12-29T11:10:41.885Z,100974.12
2022-12-29T11:13:51.909Z,100971.63
2022-12-29T11:17:04.384Z,100983.66
2022-12-29T11:20:20.960Z,100984.59
2022-12-29T11:23:25.614Z,100973.47
2022-12-29T11:26:33.894Z,100970.91
2022-12-29T11:29:42.477Z,100965.75
2022-12-29T11:32:51.457Z,100968.25
2022-12-29T11:35:57.760Z,100959.69
2022-12-29T11:39:00.683Z,100951.25
2022-12-29T11:42:04.149Z,100944.25
2022-12-29T11:45:17.510Z,100937.50
2022-12-29T11:48:22.163Z,100934.06
2022-12-29T11:51:26.478Z,100935.00
2022-12-29T11:54:34.903Z,100941.00
2022-12-29T11:57:39.477Z,100935.00
2022-12-29T12:00:43.264Z,100949.59
2022-12-29T12:03:51.983Z,100950.41
2022-12-29T12:07:00.411Z,100939.22
2022-12-29T12:10:08.124Z,100943.53
2022-12-29T12:13:16.974Z,100938.44
2022-12-29T12:16:22.258Z,100935.03
2022-12-29T12:19:44.364Z,100933.25
2022-12-29T12:22:50.387Z,100934.22
2022-12-29T12:25:57.614Z,100915.34
2022-12-29T12:29:02.098Z,100902.47
2022-12-29T12:32:27.895Z,100893.88
2022-12-29T12:35:41.215Z,100885.28
2022-12-29T12:38:46.577Z,100884.44
2022-12-29T12:41:55.464Z,100872.41
2022-12-29T12:45:15.111Z,100872.38
2022-12-29T12:48:44.394Z,100871.47
2022-12-29T12:51:56.130Z,100871.50
2022-12-29T12:55:20.783Z,100875.81
2022-12-29T12:58:48.361Z,100882.69
2022-12-29T13:02:09.969Z,100870.72
2022-12-29T13:05:27.079Z,100867.28
2022-12-29T13:08:50.105Z,100878.41
2022-12-29T13:12:13.446Z,100887.00
2022-12-29T13:15:42.426Z,100887.87
2022-12-29T13:18:52.298Z,100884.41
2022-12-29T13:22:13.841Z,100882.72
2022-12-29T13:25:19.385Z,100883.53
2022-12-29T13:28:30.517Z,100889.50
2022-12-29T13:31:45.609Z,100891.28
2022-12-29T13:34:48.340Z,100894.66
2022-12-29T13:38:06.146Z,100897.25
2022-12-29T13:41:10.962Z,100898.09
2022-12-29T13:44:16.666Z,100889.50
2022-12-29T13:47:34.712Z,100892.97
2022-12-29T13:50:39.422Z,100886.06
2022-12-29T13:53:48.136Z,100896.31
2022-12-29T13:56:53.119Z,100896.25
2022-12-29T13:59:59.927Z,100905.63
2022-12-29T14:03:17.366Z,100904.75
2022-12-29T14:06:20.223Z,100902.22
2022-12-29T14:09:45.824Z,100914.19
2022-12-29T14:12:49.859Z,100921.13
2022-12-29T14:15:58.933Z,100913.28
2022-12-29T14:19:06.544Z,100909.03
2022-12-29T14:22:09.825Z,100909.84
2022-12-29T14:25:32.417Z,100904.53
2022-12-29T14:28:42.043Z,100894.19
2022-12-29T14:31:44.775Z,100890.72
2022-12-29T14:34:51.894Z,100894.06
2022-12-29T14:38:06.725Z,100899.94
2022-12-29T14:41:25.069Z,100908.37
2022-12-29T14:44:28.154Z,100909.25
2022-12-29T14:47:35.086Z,100911.81
2022-12-29T14:50:42.526Z,100901.63
2022-12-29T14:53:46.309Z,100912.66
2022-12-29T14:56:49.301Z,100920.28
2022-12-29T14:59:54.514Z,100918.50
2022-12-29T15:03:07.597Z,100912.44
2022-12-29T15:06:12.452Z,100909.81
2022-12-29T15:09:24.339Z,100909.78
2022-12-29T15:12:26.681Z,100915.69
2022-12-29T15:15:30.968Z,100929.38
2022-12-29T15:18:34.435Z,100942.91
2022-12-29T15:21:37.261Z,100942.16
2022-12-29T15:24:42.978Z,100937.59
2022-12-29T15:27:56.059Z,100931.53
2022-12-29T15:31:03.652Z,100938.16
2022-12-29T15:34:13.148Z,100943.00
2022-12-29T15:37:18.708Z,100945.66
2022-12-29T15:40:31.717Z,100944.59
2022-12-29T15:43:40.625Z,100941.94
2022-12-29T15:46:47.842Z,100941.19
2022-12-29T15:50:16.130Z,100944.63
2022-12-29T15:53:20.581Z,100946.25
2022-12-29T15:56:25.660Z,100937.63
2022-12-29T15:59:49.205Z,100944.28
2022-12-29T16:03:05.999Z,100948.41
2022-12-29T16:06:36.648Z,100942.97
2022-12-29T16:09:45.357Z,100938.56
2022-12-29T16:12:55.695Z,100944.34
2022-12-29T16:16:02.077Z,100946.72
2022-12-29T16:19:32.976Z,100944.06
2022-12-29T16:22:47.624Z,100937.34
2022-12-29T16:25:55.670Z,100940.78
2022-12-29T16:29:10.208Z,100930.41
2022-12-29T16:32:30.366Z,100937.84
2022-12-29T16:35:44.356Z,100948.09
2022-12-29T16:38:47.418Z,100943.03
2022-12-29T16:41:51.266Z,100958.53
2022-12-29T16:45:05.723Z,100953.31
2022-12-29T16:48:24.895Z,100952.22
2022-12-29T16:51:36.036Z,100958.78
2022-12-29T16:54:55.552Z,100969.78
2022-12-29T16:57:59.302Z,100965.09
2022-12-29T17:01:04.060Z,100971.81
2022-12-29T17:04:08.394Z,100967.41
2022-12-29T17:07:29.352Z,100963.09
2022-12-29T17:10:52.776Z,100968.19
2022-12-29T17:13:55.049Z,100967.38
2022-12-29T17:16:57.796Z,100975.22
2022-12-29T17:20:05.650Z,100975.31
2022-12-29T17:23:18.454Z,100974.12
2022-12-29T17:26:25.016Z,100966.47
2022-12-29T17:29:27.692Z,100960.47
2022-12-29T17:32:30.497Z,100965.56
2022-12-29T17:35:33.494Z,100963.03
2022-12-29T17:38:39.718Z,100954.38
2022-12-29T17:41:42.429Z,100958.47
2022-12-29T17:44:44.984Z,100963.44
2022-12-29T17:47:47.953Z,100964.28
2022-12-29T17:50:51.891Z,100954.06
2022-12-29T17:53:54.563Z,100956.44
2022-12-29T17:57:01.388Z,100962.56
2022-12-29T18:00:04.366Z,100958.19
2022-12-29T18:03:16.800Z,100956.25
2022-12-29T18:06:19.761Z,100956.97
2022-12-29T18:09:22.731Z,100950.28
2022-12-29T18:12:25.494Z,100953.72
2022-12-29T18:15:34.586Z,100960.31
2022-12-29T18:18:38.285Z,100956.69
2022-12-29T18:21:41.631Z,100940.41
2022-12-29T18:24:44.271Z,100946.53
2022-12-29T18:27:46.682Z,100937.91
2022-12-29T18:30:50.735Z,100925.63
2022-12-29T18:33:54.567Z,100928.16
2022-12-29T18:36:58.866Z,100933.03
2022-12-29T18:40:01.297Z,100928.84
2022-12-29T18:43:04.365Z,100922.72
2022-12-29T18:46:06.752Z,100930.47
2022-12-29T18:49:10.041Z,100928.97
2022-12-29T18:52:13.879Z,100926.66
2022-12-29T18:55:18.265Z,100927.56
2022-12-29T18:58:20.608Z,100928.25
2022-12-29T19:01:24.852Z,100928.16
2022-12-29T19:04:27.846Z,100928.06
2022-12-29T19:07:31.887Z,100923.75
2022-12-29T19:10:35.044Z,100922.78
2022-12-29T19:13:38.164Z,100922.63
2022-12-29T19:16:41.882Z,100915.75
2022-12-29T19:19:49.669Z,100907.22
2022-12-29T19:22:58.776Z,100914.91
2022-12-29T19:26:01.638Z,100913.03
2022-12-29T19:29:09.517Z,100915.75
2022-12-29T19:32:17.824Z,100920.75
2022-12-29T19:35:21.545Z,100920.41
2022-12-29T19:38:24.269Z,100920.50
2022-12-29T19:41:26.642Z,100912.13
2022-12-29T19:44:29.540Z,100918.22
2022-12-29T19:47:32.413Z,100911.25
2022-12-29T19:50:35.571Z,100917.06
2022-12-29T19:53:38.355Z,100907.00
2022-12-29T19:56:42.975Z,100911.94
2022-12-29T19:59:45.632Z,100907.56
2022-12-29T20:02:50.501Z,100903.34
2022-12-29T20:06:46.130Z,100904.28
2022-12-29T20:09:40.814Z,100899.97
2022-12-29T20:12:43.699Z,100888.75
2022-12-29T20:15:46.135Z,100886.88
2022-12-29T20:18:49.294Z,100892.16
2022-12-29T20:21:51.954Z,100892.06
2022-12-29T20:25:18.343Z,100896.31
2022-12-29T20:28:17.355Z,100899.81
2022-12-29T20:31:23.220Z,100900.06
2022-12-29T20:34:28.281Z,100900.09
2022-12-29T20:37:30.992Z,100894.00
2022-12-29T20:40:33.434Z,100894.78
2022-12-29T20:43:36.384Z,100893.31
2022-12-29T20:46:43.633Z,100887.53
2022-12-29T20:49:47.646Z,100886.53
2022-12-29T20:52:50.097Z,100895.91
2022-12-29T20:55:54.186Z,100899.34
2022-12-29T21:02:20.698Z,100881.22
2022-12-29T21:05:24.917Z,100888.81
2022-12-29T21:08:30.059Z,100889.69
2022-12-29T21:11:32.445Z,100898.94
2022-12-29T21:14:37.647Z,100898.94
2022-12-29T21:17:44.870Z,100912.50
2022-12-29T21:20:54.637Z,100907.41
2022-12-29T21:24:05.823Z,100906.62
2022-12-29T21:27:08.589Z,100897.16
2022-12-29T21:30:11.861Z,100892.31
2022-12-29T21:33:19.464Z,100884.59
2022-12-29T21:36:22.342Z,100896.38
2022-12-29T21:39:25.177Z,100892.94
2022-12-29T21:42:27.895Z,100882.62
2022-12-29T21:45:34.156Z,100886.53
2022-12-29T21:48:37.598Z,100877.97
2022-12-29T21:51:54.080Z,100876.12
2022-12-29T21:55:00.804Z,100887.84
2022-12-29T21:58:22.046Z,100897.31
2022-12-29T22:01:44.056Z,100904.38
2022-12-29T22:05:05.512Z,100912.25
2022-12-29T22:08:26.557Z,100903.22
2022-12-29T22:11:48.570Z,100904.81
2022-12-29T22:14:50.837Z,100892.94
2022-12-29T22:17:53.999Z,100883.47
2022-12-29T22:20:56.398Z,100889.25
2022-12-29T22:24:00.600Z,100875.53
2022-12-29T22:27:02.964Z,100876.50
2022-12-29T22:30:06.585Z,100883.03
2022-12-29T22:33:08.989Z,100881.06
2022-12-29T22:36:11.584Z,100877.66
2022-12-29T22:39:14.128Z,100881.25
2022-12-29T22:42:17.211Z,100874.41
2022-12-29T22:45:20.511Z,100866.34
2022-12-29T22:48:23.097Z,100873.22
2022-12-29T22:51:26.301Z,100881.50
2022-12-29T22:54:28.875Z,100875.38
2022-12-29T22:57:31.478Z,100872.91
2022-12-29T23:00:34.178Z,100879.12
2022-12-29T23:03:37.094Z,100886.19
2022-12-29T23:06:40.241Z,100879.88
2022-12-29T23:09:42.547Z,100877.66
2022-12-29T23:12:45.760Z,100864.28
2022-12-29T23:15:48.619Z,100865.34
2022-12-29T23:18:51.450Z,100858.53
2022-12-29T23:21:54.443Z,100853.56
2022-12-29T23:24:57.136Z,100859.63
2022-12-29T23:27:59.523Z,100858.09
2022-12-29T23:31:02.298Z,100851.34
2022-12-29T23:34:05.526Z,100851.44
2022-12-29T23:37:08.215Z,100844.75
2022-12-29T23:40:11.039Z,100844.00
2022-12-29T23:43:13.769Z,100838.06
2022-12-29T23:46:20.290Z,100838.31
2022-12-29T23:49:23.085Z,100834.75
2022-12-29T23:52:25.518Z,100838.28
2022-12-29T23:55:28.238Z,100836.69
2022-12-29T23:58:31.701Z,100833.25
